createdAt,value
2018-09-12T00:02:08.965Z,20.60
2018-09-12T00:04:37.308Z,20.60
2018-09-12T00:07:07.005Z,20.50
2018-09-12T00:09:35.363Z,20.50
2018-09-12T00:12:03.688Z,20.40
2018-09-12T00:14:32.162Z,20.30
2018-09-12T00:17:00.595Z,20.30
2018-09-12T00:19:29.987Z,20.30
2018-09-12T00:22:01.463Z,20.20
2018-09-12T00:24:30.481Z,20.20
2018-09-12T00:26:58.896Z,20.20
2018-09-12T00:29:29.352Z,20.10
2018-09-12T00:31:57.754Z,20.10
2018-09-12T00:34:26.113Z,20.10
2018-09-12T00:36:54.515Z,20.00
2018-09-12T00:39:22.879Z,20.00
2018-09-12T00:41:51.228Z,20.00
2018-09-12T00:44:19.567Z,20.00
2018-09-12T00:46:47.988Z,19.90
2018-09-12T00:49:16.309Z,19.90
2018-09-12T00:51:44.634Z,19.80
2018-09-12T00:54:13.081Z,19.80
2018-09-12T00:56:41.466Z,19.80
2018-09-12T00:59:09.967Z,19.80
2018-09-12T01:01:38.333Z,19.80
2018-09-12T01:04:06.850Z,19.80
2018-09-12T01:06:35.221Z,19.70
2018-09-12T01:09:04.948Z,19.80
2018-09-12T01:11:33.386Z,19.80
2018-09-12T01:14:01.802Z,19.80
2018-09-12T01:16:30.226Z,19.70
2018-09-12T01:18:58.679Z,19.70
2018-09-12T01:21:27.054Z,19.70
2018-09-12T01:23:55.382Z,19.70
2018-09-12T01:26:23.768Z,19.80
2018-09-12T01:28:52.263Z,19.80
2018-09-12T01:31:20.645Z,19.70
2018-09-12T01:33:49.041Z,19.70
2018-09-12T01:36:17.407Z,19.80
2018-09-12T01:38:45.793Z,19.70
2018-09-12T01:41:14.170Z,19.70
2018-09-12T01:43:42.575Z,19.70
2018-09-12T01:46:10.941Z,19.70
2018-09-12T01:48:39.377Z,19.70
2018-09-12T01:51:07.879Z,19.70
2018-09-12T01:53:36.272Z,19.70
2018-09-12T01:56:04.654Z,19.70
2018-09-12T01:58:33.057Z,19.70
2018-09-12T02:01:01.369Z,19.70
2018-09-12T02:03:29.815Z,19.70
2018-09-12T02:05:58.357Z,19.70
2018-09-12T02:08:26.814Z,19.70
2018-09-12T02:10:55.278Z,19.70
2018-09-12T02:13:24.074Z,19.70
2018-09-12T02:15:52.429Z,19.70
2018-09-12T02:18:20.826Z,19.70
2018-09-12T02:20:50.013Z,19.70
2018-09-12T02:23:18.415Z,19.60
2018-09-12T02:25:46.807Z,19.60
2018-09-12T02:28:15.278Z,19.50
2018-09-12T02:30:43.754Z,19.50
2018-09-12T02:33:12.103Z,19.40
2018-09-12T02:35:45.964Z,19.40
2018-09-12T02:38:14.346Z,19.40
2018-09-12T02:40:42.720Z,19.30
2018-09-12T02:43:11.070Z,19.30
2018-09-12T02:45:39.506Z,19.30
2018-09-12T02:48:07.879Z,19.20
2018-09-12T02:50:36.255Z,19.20
2018-09-12T02:53:04.790Z,19.10
2018-09-12T02:55:33.436Z,19.10
2018-09-12T02:58:01.857Z,19.10
2018-09-12T03:00:30.460Z,19.10
2018-09-12T03:02:58.800Z,19.10
2018-09-12T03:05:27.142Z,19.10
2018-09-12T03:07:55.543Z,19.10
2018-09-12T03:10:23.884Z,19.10
2018-09-12T03:12:52.216Z,19.10
2018-09-12T03:15:20.577Z,19.10
2018-09-12T03:17:48.945Z,19.00
2018-09-12T03:20:17.326Z,19.00
2018-09-12T03:22:45.636Z,19.00
2018-09-12T03:25:14.004Z,19.00
2018-09-12T03:27:42.333Z,19.00
2018-09-12T03:30:10.706Z,19.00
2018-09-12T03:32:39.070Z,19.00
2018-09-12T03:35:07.514Z,19.00
2018-09-12T03:37:35.873Z,19.00
2018-09-12T03:40:04.455Z,19.00
2018-09-12T03:42:33.130Z,19.00
2018-09-12T03:45:01.534Z,19.00
2018-09-12T03:47:29.907Z,19.00
2018-09-12T03:49:58.232Z,19.00
2018-09-12T03:52:26.622Z,19.00
2018-09-12T03:54:54.997Z,19.00
2018-09-12T03:57:23.420Z,19.00
2018-09-12T03:59:52.064Z,19.00
2018-09-12T04:02:20.502Z,19.10
2018-09-12T04:04:48.872Z,19.10
2018-09-12T04:07:17.282Z,19.10
2018-09-12T04:09:45.660Z,19.10
2018-09-12T04:12:14.101Z,19.00
2018-09-12T04:14:42.564Z,19.00
2018-09-12T04:17:11.377Z,19.00
2018-09-12T04:19:39.828Z,19.00
2018-09-12T04:22:08.644Z,19.00
2018-09-12T04:24:37.018Z,19.00
2018-09-12T04:27:05.391Z,18.90
2018-09-12T04:29:33.792Z,18.90
2018-09-12T04:32:02.263Z,18.90
2018-09-12T04:34:30.730Z,18.90
2018-09-12T04:36:59.106Z,18.90
2018-09-12T04:39:27.516Z,18.90
2018-09-12T04:41:56.060Z,18.80
2018-09-12T04:44:24.444Z,18.80
2018-09-12T04:46:52.795Z,18.70
2018-09-12T04:49:21.267Z,18.70
2018-09-12T04:51:49.715Z,18.70
2018-09-12T04:54:18.037Z,18.60
2018-09-12T04:56:46.456Z,18.60
2018-09-12T04:59:14.939Z,18.60
2018-09-12T05:01:43.299Z,18.60
2018-09-12T05:04:11.688Z,18.50
2018-09-12T05:06:40.073Z,18.50
2018-09-12T05:09:10.593Z,18.50
2018-09-12T05:11:38.951Z,18.50
2018-09-12T05:14:07.359Z,18.50
2018-09-12T05:16:35.709Z,18.60
2018-09-12T05:19:04.090Z,18.50
2018-09-12T05:21:32.428Z,18.60
2018-09-12T05:24:00.807Z,18.60
2018-09-12T05:26:29.144Z,18.60
2018-09-12T05:28:57.554Z,18.60
2018-09-12T05:31:25.921Z,18.60
2018-09-12T05:33:54.289Z,18.60
2018-09-12T05:36:22.692Z,18.60
2018-09-12T05:38:51.084Z,18.60
2018-09-12T05:41:19.417Z,18.60
2018-09-12T05:43:48.014Z,18.60
2018-09-12T05:46:16.427Z,18.60
2018-09-12T05:48:44.721Z,18.60
2018-09-12T05:51:13.121Z,18.60
2018-09-12T05:53:41.453Z,18.60
2018-09-12T05:56:09.780Z,18.60
2018-09-12T05:58:38.124Z,18.60
2018-09-12T06:01:06.592Z,18.60
2018-09-12T06:03:34.922Z,18.60
2018-09-12T06:06:03.332Z,18.70
2018-09-12T06:08:31.677Z,18.70
2018-09-12T06:11:00.060Z,18.70
2018-09-12T06:13:28.360Z,18.70
2018-09-12T06:15:56.689Z,18.80
2018-09-12T06:18:25.008Z,18.70
2018-09-12T06:20:53.346Z,18.70
2018-09-12T06:23:21.660Z,18.70
2018-09-12T06:25:50.003Z,18.80
2018-09-12T06:28:18.355Z,18.70
2018-09-12T06:30:46.759Z,18.80
2018-09-12T06:33:15.129Z,18.80
2018-09-12T06:35:43.483Z,18.80
2018-09-12T06:38:11.941Z,18.80
2018-09-12T06:40:40.270Z,18.80
2018-09-12T06:43:08.842Z,18.90
2018-09-12T06:45:37.465Z,19.00
2018-09-12T06:48:05.977Z,19.00
2018-09-12T06:50:34.333Z,19.10
2018-09-12T06:53:02.695Z,19.10
2018-09-12T06:55:31.125Z,19.10
2018-09-12T06:57:59.469Z,19.10
2018-09-12T07:00:28.569Z,19.10
2018-09-12T07:02:56.923Z,19.20
2018-09-12T07:05:25.262Z,19.20
2018-09-12T07:07:53.766Z,19.30
2018-09-12T07:10:22.105Z,19.40
2018-09-12T07:12:50.488Z,19.80
2018-09-12T07:15:20.272Z,19.70
2018-09-12T07:17:48.644Z,19.80
2018-09-12T07:20:16.959Z,20.30
2018-09-12T07:22:45.301Z,20.50
2018-09-12T07:25:13.682Z,20.40
2018-09-12T07:27:42.099Z,20.60
2018-09-12T07:30:10.431Z,20.80
2018-09-12T07:32:38.768Z,20.70
2018-09-12T07:35:07.172Z,20.60
2018-09-12T07:37:35.761Z,20.60
2018-09-12T07:40:04.247Z,20.40
2018-09-12T07:42:32.620Z,20.40
2018-09-12T07:45:00.951Z,20.40
2018-09-12T07:47:29.302Z,20.30
2018-09-12T07:49:57.661Z,20.40
2018-09-12T07:52:26.005Z,20.40
2018-09-12T07:54:54.308Z,20.40
2018-09-12T07:57:22.654Z,20.30
2018-09-12T07:59:51.041Z,20.40
2018-09-12T08:02:19.405Z,20.40
2018-09-12T08:04:47.752Z,20.50
2018-09-12T08:07:16.165Z,20.50
2018-09-12T08:09:44.514Z,20.80
2018-09-12T08:12:12.954Z,21.30
2018-09-12T08:14:41.256Z,21.60
2018-09-12T08:17:09.662Z,22.00
2018-09-12T08:19:38.106Z,22.30
2018-09-12T08:22:06.517Z,22.60
2018-09-12T08:24:34.891Z,22.70
2018-09-12T08:27:03.355Z,22.30
2018-09-12T08:29:31.707Z,22.30
2018-09-12T08:32:00.059Z,22.30
2018-09-12T08:34:28.527Z,22.40
2018-09-12T08:36:56.901Z,22.60
2018-09-12T08:39:25.339Z,22.60
2018-09-12T08:41:53.816Z,22.60
2018-09-12T08:44:22.240Z,23.00
2018-09-12T08:46:50.622Z,23.50
2018-09-12T08:49:19.188Z,23.60
2018-09-12T08:51:47.543Z,23.70
2018-09-12T08:54:15.951Z,23.90
2018-09-12T08:56:44.341Z,24.00
2018-09-12T08:59:12.660Z,24.00
2018-09-12T09:01:41.091Z,24.30
2018-09-12T09:04:09.457Z,24.80
2018-09-12T09:06:37.753Z,25.00
2018-09-12T09:09:08.862Z,25.60
2018-09-12T09:11:37.217Z,25.10
2018-09-12T09:14:05.672Z,24.90
2018-09-12T09:16:34.154Z,24.90
2018-09-12T09:19:03.169Z,24.90
2018-09-12T09:21:32.210Z,25.30
2018-09-12T09:24:01.203Z,25.20
2018-09-12T09:26:29.545Z,24.70
2018-09-12T09:28:57.860Z,24.70
2018-09-12T09:31:26.198Z,24.60
2018-09-12T09:33:54.916Z,24.50
2018-09-12T09:36:23.242Z,24.10
2018-09-12T09:38:51.590Z,23.90
2018-09-12T09:41:19.942Z,24.10
2018-09-12T09:43:48.350Z,23.90
2018-09-12T09:46:16.685Z,24.10
2018-09-12T09:48:45.196Z,23.90
2018-09-12T09:51:13.590Z,24.00
2018-09-12T09:53:42.006Z,24.00
2018-09-12T09:56:10.340Z,23.90
2018-09-12T09:58:38.800Z,23.80
2018-09-12T10:01:12.420Z,23.50
2018-09-12T10:03:45.966Z,23.50
2018-09-12T10:06:19.800Z,23.30
2018-09-12T10:08:53.797Z,23.10
2018-09-12T10:11:22.288Z,23.10
2018-09-12T10:13:51.038Z,22.80
2018-09-12T10:16:19.957Z,22.80
2018-09-12T10:18:49.022Z,22.80
2018-09-12T10:21:18.860Z,22.80
2018-09-12T10:23:47.147Z,22.80
2018-09-12T10:26:15.473Z,22.70
2018-09-12T10:28:43.792Z,22.70
2018-09-12T10:31:12.140Z,22.50
2018-09-12T10:33:40.574Z,22.60
2018-09-12T10:36:08.921Z,22.60
2018-09-12T10:38:37.252Z,22.50
2018-09-12T10:41:05.837Z,22.30
2018-09-12T10:43:34.170Z,22.30
2018-09-12T10:46:02.532Z,22.30
2018-09-12T10:48:30.912Z,22.50
2018-09-12T10:50:59.229Z,22.70
2018-09-12T10:53:27.620Z,22.80
2018-09-12T10:55:55.984Z,23.00
2018-09-12T10:58:24.379Z,23.00
2018-09-12T11:00:52.773Z,23.00
2018-09-12T11:03:21.126Z,23.10
2018-09-12T11:05:49.439Z,23.00
2018-09-12T11:08:17.779Z,23.30
2018-09-12T11:10:46.632Z,23.30
2018-09-12T11:13:14.963Z,23.40
2018-09-12T11:15:43.297Z,23.50
2018-09-12T11:18:11.677Z,23.30
2018-09-12T11:20:40.036Z,23.10
2018-09-12T11:23:08.327Z,22.80
2018-09-12T11:25:36.681Z,22.20
2018-09-12T11:28:05.028Z,21.70
2018-09-12T11:30:33.516Z,21.30
2018-09-12T11:33:01.995Z,20.90
2018-09-12T11:35:30.320Z,20.70
2018-09-12T11:37:58.699Z,20.50
2018-09-12T11:40:27.017Z,20.20
2018-09-12T11:42:55.382Z,19.90
2018-09-12T11:45:23.768Z,19.70
2018-09-12T11:47:52.071Z,19.60
2018-09-12T11:50:20.468Z,19.60
2018-09-12T11:52:48.792Z,19.70
2018-09-12T11:58:20.308Z,19.70
2018-09-12T12:00:48.636Z,19.80
2018-09-12T12:03:17.006Z,19.90
2018-09-12T12:05:45.301Z,19.90
2018-09-12T12:08:13.594Z,20.00
2018-09-12T12:13:45.003Z,20.20
2018-09-12T12:16:14.881Z,20.40
2018-09-12T12:18:43.253Z,20.40
2018-09-12T12:21:11.604Z,20.40
2018-09-12T12:23:39.962Z,20.50
2018-09-12T12:26:08.496Z,20.30
2018-09-12T12:28:36.856Z,20.20
2018-09-12T12:31:05.341Z,20.40
2018-09-12T12:33:33.730Z,20.30
2018-09-12T12:36:02.181Z,20.40
2018-09-12T12:38:30.707Z,20.50
2018-09-12T12:40:59.398Z,20.50
2018-09-12T12:43:27.766Z,20.70
2018-09-12T12:45:56.076Z,20.60
2018-09-12T12:48:24.512Z,20.60
2018-09-12T12:50:52.928Z,20.50
2018-09-12T12:53:21.304Z,20.40
2018-09-12T12:55:49.937Z,20.30
2018-09-12T12:58:18.381Z,20.20
2018-09-12T13:00:46.879Z,20.00
2018-09-12T13:03:15.324Z,19.80
2018-09-12T13:05:43.841Z,19.60
2018-09-12T13:08:12.414Z,19.50
2018-09-12T13:10:41.375Z,19.40
2018-09-12T13:13:09.863Z,19.40
2018-09-12T13:15:38.168Z,19.20
2018-09-12T13:18:06.503Z,19.00
2018-09-12T13:20:34.920Z,18.70
2018-09-12T13:23:03.226Z,18.60
2018-09-12T13:25:31.808Z,18.40
2018-09-12T13:28:00.199Z,18.30
2018-09-12T13:30:28.538Z,18.20
2018-09-12T13:32:56.871Z,18.10
2018-09-12T13:35:25.261Z,18.00
2018-09-12T13:37:53.574Z,17.90
2018-09-12T13:40:21.922Z,17.80
2018-09-12T13:42:50.475Z,17.80
2018-09-12T13:45:18.883Z,17.70
2018-09-12T13:47:47.218Z,17.70
2018-09-12T13:50:16.239Z,17.70
2018-09-12T13:52:45.242Z,17.60
2018-09-12T13:55:13.618Z,17.40
2018-09-12T13:57:42.230Z,17.40
2018-09-12T14:00:10.579Z,17.40
2018-09-12T14:02:39.003Z,17.20
2018-09-12T14:05:07.467Z,17.20
2018-09-12T14:07:35.924Z,17.20
2018-09-12T14:10:04.732Z,17.20
2018-09-12T14:12:33.064Z,17.10
2018-09-12T14:15:01.394Z,17.20
2018-09-12T14:17:30.151Z,17.20
2018-09-12T14:19:58.739Z,17.20
2018-09-12T14:22:27.125Z,17.20
2018-09-12T14:24:55.651Z,17.20
2018-09-12T14:27:34.358Z,17.20
2018-09-12T14:30:03.639Z,17.20
2018-09-12T14:32:32.160Z,17.10
2018-09-12T14:35:01.146Z,16.90
2018-09-12T14:37:29.805Z,16.80
2018-09-12T14:39:58.514Z,16.80
2018-09-12T14:42:27.294Z,16.80
2018-09-12T14:44:55.901Z,16.80
2018-09-12T14:47:24.499Z,16.90
2018-09-12T14:49:53.677Z,17.00
2018-09-12T14:52:22.419Z,16.90
2018-09-12T14:54:51.043Z,16.90
2018-09-12T14:57:19.520Z,16.90
2018-09-12T14:59:49.040Z,17.00
2018-09-12T15:02:17.707Z,17.00
2018-09-12T15:04:48.262Z,17.00
2018-09-12T15:07:17.171Z,16.90
2018-09-12T15:09:45.721Z,16.90
2018-09-12T15:12:14.806Z,16.80
2018-09-12T15:14:43.225Z,16.80
2018-09-12T15:17:11.812Z,16.70
2018-09-12T15:19:41.712Z,16.70
2018-09-12T15:22:10.417Z,16.70
2018-09-12T15:24:38.798Z,16.70
2018-09-12T15:27:07.174Z,16.60
2018-09-12T15:29:35.607Z,16.60
2018-09-12T15:32:03.974Z,16.60
2018-09-12T15:34:32.274Z,16.70
2018-09-12T15:37:00.716Z,16.70
2018-09-12T15:39:29.146Z,16.60
2018-09-12T15:41:57.643Z,16.60
2018-09-12T15:44:26.415Z,16.50
2018-09-12T15:46:55.450Z,16.40
2018-09-12T15:49:24.236Z,16.40
2018-09-12T15:51:52.812Z,16.40
2018-09-12T15:54:22.219Z,16.40
2018-09-12T15:56:50.545Z,16.40
2018-09-12T15:59:18.857Z,16.40
2018-09-12T16:01:47.334Z,16.40
2018-09-12T16:04:15.621Z,16.40
2018-09-12T16:06:44.081Z,16.40
2018-09-12T16:09:12.444Z,16.30
2018-09-12T16:11:40.873Z,16.30
2018-09-12T16:14:09.194Z,16.30
2018-09-12T16:16:37.604Z,16.30
2018-09-12T16:19:06.445Z,16.30
2018-09-12T16:21:34.770Z,16.20
2018-09-12T16:24:03.129Z,16.20
2018-09-12T16:26:31.583Z,16.20
2018-09-12T16:28:59.903Z,16.10
2018-09-12T16:31:28.231Z,16.10
2018-09-12T16:33:56.723Z,16.10
2018-09-12T16:36:25.286Z,16.10
2018-09-12T16:38:53.589Z,16.10
2018-09-12T16:41:21.931Z,16.10
2018-09-12T16:43:50.264Z,16.10
2018-09-12T16:46:20.549Z,16.10
2018-09-12T16:48:48.919Z,16.10
2018-09-12T16:51:17.237Z,16.10
2018-09-12T16:53:46.551Z,16.10
2018-09-12T16:56:14.892Z,16.00
2018-09-12T16:58:43.181Z,16.00
2018-09-12T17:01:11.508Z,16.00
2018-09-12T17:03:58.790Z,16.00
2018-09-12T17:06:28.216Z,16.00
2018-09-12T17:08:56.570Z,16.00
2018-09-12T17:17:20.779Z,15.90
2018-09-12T17:19:49.126Z,15.90
2018-09-12T17:22:17.554Z,15.90
2018-09-12T17:24:45.886Z,15.90
2018-09-12T17:27:14.342Z,15.90
2018-09-12T17:29:43.577Z,15.80
2018-09-12T17:32:11.948Z,15.80
2018-09-12T17:34:40.297Z,15.80
2018-09-12T17:37:08.669Z,15.80
2018-09-12T17:39:37.056Z,15.80
2018-09-12T17:42:05.440Z,15.80
2018-09-12T17:44:33.806Z,15.70
2018-09-12T17:47:02.159Z,15.70
2018-09-12T17:49:30.515Z,15.70
2018-09-12T17:51:58.967Z,15.70
2018-09-12T17:54:28.919Z,15.70
2018-09-12T17:56:57.342Z,15.70
2018-09-12T17:59:25.719Z,15.60
2018-09-12T18:01:54.043Z,15.60
2018-09-12T18:04:22.790Z,15.60
2018-09-12T18:06:51.163Z,15.60
2018-09-12T18:09:19.489Z,15.60
2018-09-12T18:11:47.812Z,15.60
2018-09-12T18:14:16.946Z,15.50
2018-09-12T18:16:45.260Z,15.60
2018-09-12T18:19:13.627Z,15.50
2018-09-12T18:21:42.142Z,15.50
2018-09-12T18:24:10.535Z,15.50
2018-09-12T18:26:38.904Z,15.50
2018-09-12T18:29:07.557Z,15.50
2018-09-12T18:31:35.925Z,15.50
2018-09-12T18:34:04.316Z,15.50
2018-09-12T18:36:32.687Z,15.50
2018-09-12T18:39:02.331Z,15.40
2018-09-12T18:41:31.311Z,15.40
2018-09-12T18:44:00.469Z,15.40
2018-09-12T18:46:28.821Z,15.30
2018-09-12T18:48:57.224Z,15.30
2018-09-12T18:51:25.890Z,15.30
2018-09-12T18:53:54.865Z,15.30
2018-09-12T18:56:23.980Z,15.30
2018-09-12T18:58:52.352Z,15.30
2018-09-12T19:01:21.886Z,15.30
2018-09-12T19:03:51.265Z,15.30
2018-09-12T19:06:19.667Z,15.20
2018-09-12T19:08:48.096Z,15.20
2018-09-12T19:11:16.708Z,15.20
2018-09-12T19:13:45.143Z,15.10
2018-09-12T19:16:13.849Z,15.10
2018-09-12T19:18:42.613Z,15.10
2018-09-12T19:21:10.997Z,15.10
2018-09-12T19:23:39.519Z,15.10
2018-09-12T19:26:08.198Z,15.00
2018-09-12T19:28:36.650Z,15.00
2018-09-12T19:31:05.065Z,15.00
2018-09-12T19:33:34.597Z,15.00
2018-09-12T19:36:03.064Z,15.00
2018-09-12T19:38:32.186Z,15.00
2018-09-12T19:41:00.675Z,15.00
2018-09-12T19:43:29.060Z,15.00
2018-09-12T19:45:57.400Z,15.00
2018-09-12T19:48:25.700Z,14.90
2018-09-12T19:50:54.032Z,14.90
2018-09-12T19:53:22.438Z,15.00
2018-09-12T19:55:50.832Z,15.00
2018-09-12T19:58:19.289Z,15.00
2018-09-12T20:00:47.628Z,15.00
2018-09-12T20:03:15.999Z,15.00
2018-09-12T20:05:44.550Z,15.00
2018-09-12T20:08:12.981Z,15.00
2018-09-12T20:10:41.503Z,14.90
2018-09-12T20:13:09.932Z,14.90
2018-09-12T20:15:38.414Z,14.90
2018-09-12T20:18:07.184Z,14.80
2018-09-12T20:20:35.662Z,14.70
2018-09-12T20:23:04.012Z,14.70
2018-09-12T20:25:32.385Z,14.70
2018-09-12T20:28:00.820Z,14.70
2018-09-12T20:30:29.231Z,14.60
2018-09-12T20:32:57.581Z,14.60
2018-09-12T20:35:25.918Z,14.60
2018-09-12T20:37:54.471Z,14.50
2018-09-12T20:40:23.888Z,14.50
2018-09-12T20:42:57.653Z,14.50
2018-09-12T20:45:26.224Z,14.50
2018-09-12T20:47:55.986Z,14.40
2018-09-12T20:50:25.574Z,14.40
2018-09-12T20:52:54.120Z,14.40
2018-09-12T20:55:28.066Z,14.40
2018-09-12T20:57:56.612Z,14.40
2018-09-12T21:00:24.970Z,14.30
2018-09-12T21:02:53.357Z,14.30
2018-09-12T21:05:21.804Z,14.30
2018-09-12T21:07:50.139Z,14.30
2018-09-12T21:10:19.414Z,14.30
2018-09-12T21:12:47.752Z,14.30
2018-09-12T21:15:16.060Z,14.20
2018-09-12T21:17:44.467Z,14.20
2018-09-12T21:20:12.843Z,14.20
2018-09-12T21:22:41.172Z,14.20
2018-09-12T21:25:09.553Z,14.20
2018-09-12T21:27:37.949Z,14.20
2018-09-12T21:30:06.833Z,14.20
2018-09-12T21:32:35.251Z,14.20
2018-09-12T21:35:03.661Z,14.20
2018-09-12T21:37:32.262Z,14.20
2018-09-12T21:40:01.966Z,14.10
2018-09-12T21:42:30.354Z,14.10
2018-09-12T21:44:59.016Z,14.10
2018-09-12T21:47:27.515Z,14.10
2018-09-12T21:49:56.043Z,14.10
2018-09-12T21:52:24.706Z,14.10
2018-09-12T21:54:53.111Z,14.10
2018-09-12T21:57:21.483Z,14.10
2018-09-12T21:59:49.857Z,14.10
2018-09-12T22:02:18.342Z,14.10
2018-09-12T22:04:46.719Z,14.10
2018-09-12T22:07:15.076Z,14.10
2018-09-12T22:09:43.412Z,14.10
2018-09-12T22:12:11.751Z,14.10
2018-09-12T22:14:40.160Z,14.10
2018-09-12T22:17:08.485Z,14.00
2018-09-12T22:19:36.925Z,14.00
2018-09-12T22:22:05.248Z,14.00
2018-09-12T22:24:34.052Z,14.00
2018-09-12T22:27:02.438Z,14.10
2018-09-12T22:29:30.839Z,14.00
2018-09-12T22:31:59.276Z,14.00
2018-09-12T22:34:27.588Z,14.00
2018-09-12T22:36:56.780Z,14.00
2018-09-12T22:39:25.093Z,14.00
2018-09-12T22:41:53.437Z,14.00
2018-09-12T22:44:21.823Z,14.00
2018-09-12T22:46:50.224Z,14.00
2018-09-12T22:49:18.572Z,14.00
2018-09-12T22:51:47.197Z,14.00
2018-09-12T22:54:16.459Z,14.00
2018-09-12T22:56:44.841Z,14.00
2018-09-12T22:59:13.210Z,14.00
2018-09-12T23:01:41.713Z,14.00
2018-09-12T23:04:10.084Z,14.00
2018-09-12T23:06:38.434Z,13.90
2018-09-12T23:09:08.814Z,13.90
2018-09-12T23:11:37.249Z,13.90
2018-09-12T23:14:05.965Z,13.90
2018-09-12T23:16:34.641Z,13.90
2018-09-12T23:19:03.026Z,13.90
2018-09-12T23:21:31.539Z,13.90
2018-09-12T23:23:59.929Z,13.90
2018-09-12T23:26:28.272Z,13.90
2018-09-12T23:28:56.580Z,13.90
2018-09-12T23:31:24.936Z,13.90
2018-09-12T23:33:53.283Z,13.90
2018-09-12T23:36:21.644Z,13.90
2018-09-12T23:38:49.983Z,13.90
2018-09-12T23:41:18.306Z,13.90
2018-09-12T23:43:46.642Z,13.80
2018-09-12T23:46:15.042Z,13.80
2018-09-12T23:48:43.807Z,13.80
2018-09-12T23:51:12.307Z,13.80
2018-09-12T23:53:40.765Z,13.70
2018-09-12T23:56:09.189Z,13.70
2018-09-12T23:58:37.546Z,13.70
